Time;durP1;ratioP1;P1;durP2;ratioP2;P2;SDS_P1;SDS_P2;PMS_P1;PMS_P2;Temp;Humidity;BMP_temperature;BMP_pressure;BME280_temperature;BME280_humidity;BME280_pressure;Samples;Min_cycle;Max_cycle;Signal;HPM_P1;HPM_P2
2023/08/05 00:00:20;;;;;;;9.00;8.10;;;;;;;14.74;100.00;100845.56;5049108;22;20566;-77
2023/08/05 00:02:49;;;;;;;8.77;6.57;;;;;;;14.80;100.00;100858.28;5052566;28;20445;-77
2023/08/05 00:05:20;;;;;;;10.60;7.37;;;;;;;14.76;100.00;100855.16;5047249;28;20410;-79
2023/08/05 00:07:50;;;;;;;7.80;6.97;;;;;;;14.62;100.00;100859.13;5049005;28;20751;-78
2023/08/05 00:10:19;;;;;;;9.90;7.50;;;;;;;14.56;100.00;100864.69;5036711;28;20431;-79
2023/08/05 00:12:48;;;;;;;13.60;6.37;;;;;;;14.63;100.00;100858.06;5029626;28;20403;-80
2023/08/05 00:15:18;;;;;;;8.53;6.90;;;;;;;14.65;100.00;100866.03;5012201;28;20456;-78
2023/08/05 00:17:47;;;;;;;9.07;6.63;;;;;;;14.68;100.00;100869.09;5017625;28;20827;-79
2023/08/05 00:20:16;;;;;;;7.63;6.80;;;;;;;14.68;100.00;100873.72;5010727;28;20798;-80
2023/08/05 00:22:46;;;;;;;7.03;5.83;;;;;;;14.66;100.00;100884.03;5028422;28;20498;-79
2023/08/05 00:25:15;;;;;;;10.00;6.67;;;;;;;14.63;100.00;100888.03;4993246;28;20443;-79
2023/08/05 00:27:45;;;;;;;8.00;7.20;;;;;;;14.64;100.00;100881.53;4987432;28;20975;-79
2023/08/05 00:30:14;;;;;;;7.80;7.10;;;;;;;14.66;100.00;100886.75;5022173;28;20436;-79
2023/08/05 00:32:43;;;;;;;8.93;8.03;;;;;;;14.68;100.00;100882.72;5026953;28;20499;-79
2023/08/05 00:35:12;;;;;;;7.47;6.60;;;;;;;14.64;100.00;100877.97;5025292;28;20438;-79
2023/08/05 00:37:41;;;;;;;11.27;7.30;;;;;;;14.57;100.00;100877.25;5010608;28;20419;-79
2023/08/05 00:40:12;;;;;;;12.27;8.00;;;;;;;14.49;100.00;100875.63;5011085;28;20443;-79
2023/08/05 00:42:41;;;;;;;11.20;8.17;;;;;;;14.43;100.00;100875.72;4998604;28;20431;-81
2023/08/05 00:45:10;;;;;;;9.03;6.93;;;;;;;14.43;100.00;100870.28;5009935;28;20465;-79
2023/08/05 00:47:40;;;;;;;8.90;7.37;;;;;;;14.44;100.00;100877.38;5030500;28;20501;-79
2023/08/05 00:50:11;;;;;;;7.93;7.13;;;;;;;14.38;100.00;100872.88;5009803;28;20461;-79
2023/08/05 00:52:41;;;;;;;11.67;8.10;;;;;;;14.28;100.00;100868.72;5028676;28;20484;-78
2023/08/05 00:55:14;;;;;;;11.47;7.73;;;;;;;14.23;100.00;100868.56;5014801;28;20456;-79
2023/08/05 00:57:43;;;;;;;8.33;6.70;;;;;;;14.22;100.00;100866.09;5028218;28;20429;-80
2023/08/05 01:00:13;;;;;;;11.80;7.20;;;;;;;14.22;100.00;100869.66;5011222;28;20446;-79
2023/08/05 01:02:42;;;;;;;8.07;6.83;;;;;;;14.19;100.00;100870.09;5017296;28;20465;-78
2023/08/05 01:05:12;;;;;;;8.13;7.33;;;;;;;14.24;100.00;100878.41;5013212;28;20388;-79
2023/08/05 01:07:43;;;;;;;9.40;7.03;;;;;;;14.19;100.00;100880.97;5025818;28;20391;-78
2023/08/05 01:10:14;;;;;;;9.53;7.57;;;;;;;14.17;100.00;100877.66;5003443;28;20451;-78
2023/08/05 01:12:43;;;;;;;9.17;6.77;;;;;;;14.12;100.00;100879.41;5032294;28;20467;-77
2023/08/05 01:15:12;;;;;;;7.83;7.10;;;;;;;14.13;100.00;100873.75;5030813;28;20383;-77
2023/08/05 01:17:42;;;;;;;9.87;6.97;;;;;;;14.20;100.00;100871.75;5037578;28;20380;-78
2023/08/05 01:20:14;;;;;;;7.00;6.30;;;;;;;14.17;100.00;100865.94;5037265;28;20433;-79
2023/08/05 01:22:44;;;;;;;7.70;6.77;;;;;;;14.29;100.00;100864.13;5010072;28;20413;-79
2023/08/05 01:25:34;;;;;;;10.57;7.00;;;;;;;14.30;100.00;100861.19;5015717;28;20442;-79
2023/08/05 01:28:04;;;;;;;8.27;6.73;;;;;;;14.30;100.00;100855.75;5028221;28;20800;-78
2023/08/05 01:30:34;;;;;;;6.47;5.87;;;;;;;14.42;100.00;100864.03;5027781;28;20423;-79
2023/08/05 01:33:04;;;;;;;10.33;6.90;;;;;;;14.34;100.00;100851.50;4990292;28;20493;-78
2023/08/05 01:35:33;;;;;;;6.90;5.70;;;;;;;14.57;100.00;100855.47;5007305;28;20414;-78
2023/08/05 01:38:02;;;;;;;7.60;6.80;;;;;;;14.45;100.00;100849.09;5014302;28;20404;-77
2023/08/05 01:40:33;;;;;;;9.60;5.77;;;;;;;14.39;100.00;100850.00;5014566;28;20450;-79
2023/08/05 01:43:03;;;;;;;6.83;6.00;;;;;;;14.44;100.00;100845.53;5018588;28;20831;-79
2023/08/05 01:45:36;;;;;;;13.20;5.57;;;;;;;14.40;100.00;100840.78;5010616;28;20451;-78
2023/08/05 01:48:05;;;;;;;6.93;5.70;;;;;;;14.46;100.00;100845.31;5011216;28;20465;-78
2023/08/05 01:50:35;;;;;;;6.43;5.67;;;;;;;14.37;100.00;100852.97;5028592;28;20463;-79
2023/08/05 01:53:05;;;;;;;7.60;5.70;;;;;;;14.30;100.00;100850.28;5025706;28;20539;-80
2023/08/05 01:55:35;;;;;;;8.67;6.07;;;;;;;14.27;100.00;100856.22;5027064;28;20838;-80
2023/08/05 01:58:04;;;;;;;6.23;5.50;;;;;;;14.31;100.00;100853.84;5011006;28;20419;-80
2023/08/05 02:00:33;;;;;;;8.93;5.27;;;;;;;14.35;100.00;100858.59;5017581;28;20435;-78
2023/08/05 02:03:03;;;;;;;6.73;6.00;;;;;;;14.39;100.00;100853.56;5005765;28;20440;-78
2023/08/05 02:05:32;;;;;;;8.00;5.10;;;;;;;14.42;100.00;100858.56;5032149;28;20566;-78
2023/08/05 02:08:02;;;;;;;6.40;5.60;;;;;;;14.37;100.00;100852.16;5011300;28;20433;-79
2023/08/05 02:10:36;;;;;;;6.33;5.40;;;;;;;14.43;100.00;100864.81;5024694;28;20453;-78
2023/08/05 02:13:05;;;;;;;6.87;5.27;;;;;;;14.35;100.00;100853.16;5028705;28;20439;-78
2023/08/05 02:15:35;;;;;;;10.73;6.17;;;;;;;14.30;100.00;100861.19;5021016;28;20400;-78
2023/08/05 02:18:04;;;;;;;9.60;5.03;;;;;;;14.30;100.00;100855.75;5037317;28;20408;-78
2023/08/05 02:20:35;;;;;;;6.17;4.83;;;;;;;14.44;100.00;100856.44;5020083;28;20473;-78
2023/08/05 02:23:04;;;;;;;7.03;5.73;;;;;;;14.35;100.00;100853.16;5036434;28;20431;-79
2023/08/05 02:25:38;;;;;;;6.07;4.77;;;;;;;14.30;100.00;100860.34;5030957;28;20469;-77
2023/08/05 02:28:07;;;;;;;7.37;5.30;;;;;;;14.21;100.00;100859.00;5032673;28;20410;-79
2023/08/05 02:30:36;;;;;;;5.97;4.80;;;;;;;14.19;100.00;100855.66;5029140;28;20460;-79
2023/08/05 02:33:05;;;;;;;6.23;5.43;;;;;;;14.20;100.00;100857.31;5016845;28;20443;-79
2023/08/05 02:35:35;;;;;;;4.23;3.70;;;;;;;14.18;100.00;100865.72;5002962;28;20420;-80
2023/08/05 02:38:04;;;;;;;7.50;5.70;;;;;;;14.13;100.00;100879.19;5004628;28;20445;-79
2023/08/05 02:40:33;;;;;;;12.90;5.70;;;;;;;14.10;100.00;100876.91;5021945;28;20492;-79
2023/08/05 02:43:04;;;;;;;8.10;6.37;;;;;;;14.10;100.00;100874.19;5023249;28;20414;-79
2023/08/05 02:45:34;;;;;;;11.30;7.23;;;;;;;14.17;100.00;100885.84;5022390;28;20448;-79
2023/08/05 02:48:02;;;;;;;15.57;6.77;;;;;;;14.15;100.00;100893.38;5023371;28;20468;-78
2023/08/05 02:50:31;;;;;;;10.07;7.77;;;;;;;14.12;100.00;100891.13;5024076;28;20917;-79
2023/08/05 02:53:00;;;;;;;10.00;6.20;;;;;;;14.10;100.00;100885.06;5006721;28;20849;-79
2023/08/05 02:55:29;;;;;;;8.67;6.53;;;;;;;14.06;100.00;100883.84;5009132;28;20443;-78
2023/08/05 02:57:58;;;;;;;7.33;6.63;;;;;;;13.98;100.00;100883.31;5020135;28;20433;-78
2023/08/05 03:00:29;;;;;;;9.20;6.20;;;;;;;13.99;100.00;100885.78;5027313;28;20471;-78
2023/08/05 03:02:58;;;;;;;14.83;7.43;;;;;;;13.96;100.00;100875.38;5033305;28;20399;-78
2023/08/05 03:05:27;;;;;;;10.13;6.50;;;;;;;13.96;100.00;100888.97;5037053;28;20430;-77
2023/08/05 03:07:57;;;;;;;11.57;6.57;;;;;;;13.88;100.00;100889.28;5037600;28;20421;-78
2023/08/05 03:14:38;;;;;;;13.63;6.43;;;;;;;13.81;100.00;100877.59;5034139;28;20492;-77
2023/08/05 03:17:12;;;;;;;9.70;6.37;;;;;;;13.87;100.00;100887.59;5001081;28;20477;-78
2023/08/05 03:19:41;;;;;;;9.33;6.93;;;;;;;13.86;100.00;100891.38;5030006;28;20471;-77
2023/08/05 03:22:10;;;;;;;8.70;6.70;;;;;;;13.86;100.00;100888.66;5038126;28;20426;-76
2023/08/05 03:24:43;;;;;;;7.47;6.13;;;;;;;13.92;100.00;100879.59;5019107;28;20406;-78
2023/08/05 03:27:16;;;;;;;7.43;6.10;;;;;;;13.85;100.00;100876.94;5037625;28;20445;-77
2023/08/05 03:29:48;;;;;;;7.53;6.10;;;;;;;13.83;100.00;100875.50;5019808;28;20431;-80
2023/08/05 03:32:18;;;;;;;7.97;6.33;;;;;;;13.87;100.00;100872.13;5019453;28;20492;-79
2023/08/05 03:34:47;;;;;;;10.07;6.73;;;;;;;13.87;100.00;100865.84;5025762;28;20518;-79
2023/08/05 03:37:17;;;;;;;10.50;7.60;;;;;;;13.80;100.00;100863.16;5033638;28;20487;-78
2023/08/05 03:39:47;;;;;;;7.07;5.77;;;;;;;13.89;100.00;100863.75;5025642;28;20432;-78
2023/08/05 03:42:16;;;;;;;7.27;6.27;;;;;;;13.84;100.00;100871.75;5020269;28;20424;-78
2023/08/05 03:44:46;;;;;;;8.17;6.57;;;;;;;13.82;100.00;100868.41;5023880;28;20437;-78
2023/08/05 03:47:17;;;;;;;7.07;6.37;;;;;;;13.99;100.00;100874.91;5037703;28;20401;-78
2023/08/05 03:49:46;;;;;;;7.77;6.97;;;;;;;14.05;100.00;100879.47;5037228;28;20420;-77
2023/08/05 03:52:15;;;;;;;9.03;6.10;;;;;;;14.43;100.00;100865.66;5031164;28;20457;-78
2023/08/05 03:54:45;;;;;;;8.13;5.43;;;;;;;14.64;100.00;100872.53;5004619;28;20412;-78
2023/08/05 03:57:15;;;;;;;6.20;5.30;;;;;;;14.64;100.00;100872.53;5022931;28;20400;-78
2023/08/05 03:59:47;;;;;;;7.23;5.17;;;;;;;14.87;100.00;100867.19;5008125;28;20453;-79
2023/08/05 04:02:17;;;;;;;6.73;6.07;;;;;;;15.64;100.00;100879.00;5007886;28;21003;-80
2023/08/05 04:04:47;;;;;;;6.10;5.20;;;;;;;16.40;100.00;100867.94;5004026;28;20427;-78
2023/08/05 04:07:19;;;;;;;7.73;5.17;;;;;;;16.95;95.22;100883.81;5023758;28;20403;-79
2023/08/05 04:09:51;;;;;;;8.43;6.23;;;;;;;17.50;93.60;100884.00;5020049;28;20457;-79
2023/08/05 04:12:20;;;;;;;6.00;5.10;;;;;;;17.70;88.60;100884.38;5019125;28;20396;-79
2023/08/05 04:14:50;;;;;;;6.50;5.07;;;;;;;18.07;85.45;100883.81;5017004;28;20415;-79
2023/08/05 04:17:23;;;;;;;7.30;5.00;;;;;;;18.80;81.58;100880.72;5019181;28;20395;-79
2023/08/05 04:19:52;;;;;;;5.17;4.43;;;;;;;19.63;77.11;100875.78;5011791;28;20458;-80
2023/08/05 04:22:24;;;;;;;5.30;4.80;;;;;;;19.84;74.34;100888.59;5005860;28;20487;-78
2023/08/05 04:24:53;;;;;;;5.40;3.80;;;;;;;20.24;72.83;100888.84;5000238;28;20433;-78
2023/08/05 04:27:22;;;;;;;10.00;4.40;;;;;;;20.44;70.86;100892.81;5016910;28;20428;-81
2023/08/05 04:29:51;;;;;;;5.60;4.20;;;;;;;20.27;71.63;100893.81;5017323;28;20527;-78
2023/08/05 04:32:22;;;;;;;5.10;4.40;;;;;;;20.84;68.61;100898.50;5006018;28;20455;-79
2023/08/05 04:34:51;;;;;;;4.07;3.40;;;;;;;21.14;66.86;100898.63;5021332;28;20812;-80
2023/08/05 04:37:22;;;;;;;5.07;4.60;;;;;;;21.40;66.21;100912.41;5012048;28;20487;-80
2023/08/05 04:56:51;;;;;;;6.20;5.10;;;;;;;22.60;60.06;100909.84;5012796;28;20542;-79
2023/08/05 04:59:21;;;;;;;6.13;4.00;;;;;;;22.18;61.25;100912.97;5014426;28;20477;-79
2023/08/05 05:01:50;;;;;;;5.57;4.20;;;;;;;22.10;61.66;100909.69;5007912;28;20441;-77
2023/08/05 05:04:19;;;;;;;6.23;3.80;;;;;;;21.78;63.52;100908.31;5007068;28;20423;-78
2023/08/05 05:06:48;;;;;;;4.53;4.03;;;;;;;22.22;61.67;100897.56;5008004;28;20475;-78
2023/08/05 05:09:17;;;;;;;5.57;4.73;;;;;;;22.78;60.64;100907.31;5008892;28;20445;-78
2023/08/05 05:11:46;;;;;;;7.80;4.03;;;;;;;23.14;58.71;100904.38;4998285;28;20477;-79
2023/08/05 05:14:17;;;;;;;6.07;3.17;;;;;;;23.63;57.49;100910.66;5003778;28;20504;-79
2023/08/05 05:16:46;;;;;;;6.93;4.03;;;;;;;24.10;54.99;100922.97;5018465;28;20482;-78
2023/08/05 05:19:15;;;;;;;6.10;4.03;;;;;;;24.62;53.88;100945.13;4999170;28;20495;-80
2023/08/05 05:21:44;;;;;;;5.50;3.83;;;;;;;24.28;55.19;100944.38;5021165;28;20985;-78
2023/08/05 05:24:13;;;;;;;4.70;4.30;;;;;;;24.53;53.79;100935.81;5000712;28;20437;-79
2023/08/05 05:26:43;;;;;;;7.43;5.10;;;;;;;23.44;57.08;100937.28;5002998;28;20491;-79
2023/08/05 05:29:12;;;;;;;3.63;2.97;;;;;;;22.40;60.60;100936.38;5015409;28;20453;-79
2023/08/05 05:31:42;;;;;;;9.30;3.90;;;;;;;21.19;65.16;100942.66;5024544;28;20433;-78
2023/08/05 05:34:11;;;;;;;8.77;4.57;;;;;;;19.74;72.89;100946.19;5030930;28;20439;-78
2023/08/05 05:36:41;;;;;;;5.53;4.07;;;;;;;18.42;80.07;100935.56;5005152;28;20447;-78
2023/08/05 05:39:10;;;;;;;7.63;4.60;;;;;;;17.67;85.83;100939.59;5001357;28;20480;-79
2023/08/05 05:41:39;;;;;;;4.70;3.97;;;;;;;17.38;89.38;100940.69;5018359;28;20933;-79
2023/08/05 05:44:09;;;;;;;6.50;4.80;;;;;;;17.23;91.17;100941.22;5019302;28;20396;-79
2023/08/05 05:46:43;;;;;;;5.13;4.30;;;;;;;17.10;92.94;100937.97;5019263;28;20408;-79
2023/08/05 05:49:12;;;;;;;5.20;4.80;;;;;;;17.09;93.73;100936.31;5020789;28;20440;-78
2023/08/05 05:51:42;;;;;;;6.53;5.27;;;;;;;17.03;94.26;100931.81;5030591;28;20422;-79
2023/08/05 05:54:11;;;;;;;5.03;4.53;;;;;;;17.04;95.16;100930.75;5014815;28;20435;-78
2023/08/05 05:56:40;;;;;;;7.00;4.70;;;;;;;17.15;94.75;100932.59;5010347;28;20453;-79
2023/08/05 05:59:09;;;;;;;6.20;4.90;;;;;;;17.37;93.57;100928.94;5047845;22;20466;-83
2023/08/05 06:01:39;;;;;;;5.27;4.27;;;;;;;17.38;92.64;100935.22;5027719;28;20418;-83
2023/08/05 06:04:09;;;;;;;5.47;4.97;;;;;;;17.39;92.45;100925.94;5032267;28;20451;-83
2023/08/05 06:06:39;;;;;;;6.40;4.93;;;;;;;17.65;91.38;100924.50;5032295;28;20469;-83
2023/08/05 06:09:08;;;;;;;4.70;4.20;;;;;;;17.79;90.61;100921.19;5031414;28;20478;-83
2023/08/05 06:11:37;;;;;;;5.70;5.10;;;;;;;18.12;89.49;100919.50;5017824;28;20597;-81
2023/08/05 06:14:06;;;;;;;6.53;5.07;;;;;;;18.13;86.62;100924.75;5011399;28;20439;-82
2023/08/05 06:16:36;;;;;;;5.87;5.30;;;;;;;18.21;86.38;100921.56;5016649;28;20456;-80
2023/08/05 06:19:05;;;;;;;6.40;5.33;;;;;;;18.01;87.89;100929.47;5016525;28;20425;-81
2023/08/05 06:21:35;;;;;;;5.03;4.50;;;;;;;18.18;86.81;100921.25;5009887;28;20782;-83
2023/08/05 06:24:05;;;;;;;5.80;5.10;;;;;;;18.31;86.40;100923.63;5008556;28;20505;-83
2023/08/05 06:26:34;;;;;;;4.70;4.00;;;;;;;18.18;86.78;100923.97;5014152;28;20456;-81
2023/08/05 06:29:03;;;;;;;7.43;4.90;;;;;;;18.21;86.81;100924.31;5016114;28;20461;-83
2023/08/05 06:31:32;;;;;;;4.73;4.27;;;;;;;18.37;86.31;100928.09;5015092;28;20409;-83
2023/08/05 06:34:01;;;;;;;6.13;4.03;;;;;;;18.21;86.39;100928.94;5016120;28;20440;-83
2023/08/05 06:36:30;;;;;;;6.30;5.00;;;;;;;18.52;85.28;100933.78;5046566;28;20438;-84
2023/08/05 06:39:03;;;;;;;7.37;5.30;;;;;;;18.50;84.51;100935.94;5001870;28;20405;-83
2023/08/05 06:41:33;;;;;;;11.00;4.60;;;;;;;18.58;84.02;100935.56;5010100;28;20389;-84
2023/08/05 06:51:40;;;;;;;5.67;3.93;;;;;;;19.13;79.73;100937.28;5005743;28;20456;-83
2023/08/05 06:54:11;;;;;;;6.17;4.50;;;;;;;19.08;80.92;100945.47;5014565;28;20467;-83
2023/08/05 06:56:40;;;;;;;6.03;4.23;;;;;;;18.65;81.84;100933.44;5017663;28;20446;-82
2023/08/05 06:59:09;;;;;;;5.67;4.57;;;;;;;18.40;84.39;100926.75;5011783;28;20420;-83
2023/08/05 07:01:40;;;;;;;8.90;5.00;;;;;;;18.28;84.23;100931.53;5012527;28;20416;-84
2023/08/05 07:04:09;;;;;;;7.27;4.50;;;;;;;18.52;83.67;100928.31;4997993;28;20405;-82
2023/08/05 07:06:39;;;;;;;5.57;4.17;;;;;;;18.62;82.21;100923.00;4998453;28;20405;-83
2023/08/05 07:09:09;;;;;;;5.83;5.10;;;;;;;18.75;81.82;100923.69;4998332;28;20709;-84
2023/08/05 07:11:38;;;;;;;6.47;4.47;;;;;;;19.03;80.07;100921.56;4999251;28;20411;-82
2023/08/05 07:14:08;;;;;;;5.83;4.80;;;;;;;19.23;79.78;100925.59;4991883;28;20480;-82
2023/08/05 07:16:37;;;;;;;8.87;4.93;;;;;;;19.41;79.40;100917.03;5001794;28;20432;-83
2023/08/05 07:19:06;;;;;;;8.50;5.60;;;;;;;19.52;78.59;100913.31;5009533;28;20432;-83
2023/08/05 07:21:39;;;;;;;7.67;4.90;;;;;;;19.58;78.21;100916.91;5013362;28;20404;-83
2023/08/05 07:24:09;;;;;;;6.47;4.20;;;;;;;19.73;76.94;100919.81;5013968;28;20453;-82
2023/08/05 07:26:39;;;;;;;8.50;5.80;;;;;;;19.39;77.51;100913.69;5006943;28;20396;-83
2023/08/05 07:29:08;;;;;;;8.97;4.30;;;;;;;19.51;77.41;100928.94;4998852;28;20461;-83
2023/08/05 07:31:37;;;;;;;10.40;4.47;;;;;;;19.33;78.28;100915.56;4991893;28;20417;-84
2023/08/05 07:34:08;;;;;;;11.37;5.90;;;;;;;19.45;76.65;100908.03;4993112;28;21015;-83
2023/08/05 07:36:59;;;;;;;14.03;4.60;;;;;;;19.14;78.92;100916.19;5001546;28;20434;-83
2023/08/05 07:39:33;;;;;;;6.60;4.57;;;;;;;19.27;78.82;100919.34;5015628;28;20432;-82
2023/08/05 07:42:03;;;;;;;6.33;4.13;;;;;;;19.38;78.04;100918.34;5005734;28;20428;-82
2023/08/05 07:44:32;;;;;;;4.43;3.50;;;;;;;19.77;76.40;100915.44;4999482;28;20836;-81
2023/08/05 07:47:02;;;;;;;11.07;4.53;;;;;;;19.60;77.00;100923.81;5001691;28;20563;-86
2023/08/05 07:49:31;;;;;;;7.13;4.83;;;;;;;19.64;78.15;100924.13;5019964;28;20447;-83
2023/08/05 07:52:00;;;;;;;6.30;5.70;;;;;;;19.88;75.90;100934.50;5014404;28;20401;-82
2023/08/05 07:54:30;;;;;;;8.17;5.17;;;;;;;19.84;75.11;100918.81;5011255;28;20453;-82
2023/08/05 07:56:59;;;;;;;6.83;4.20;;;;;;;19.74;76.67;100915.97;5012365;28;20444;-83
2023/08/05 07:59:30;;;;;;;5.73;4.80;;;;;;;19.42;77.02;100905.78;4998715;28;20541;-81
2023/08/05 08:02:00;;;;;;;7.73;4.97;;;;;;;19.25;78.52;100905.06;5030767;28;20519;-83
2023/08/05 08:04:30;;;;;;;6.70;3.77;;;;;;;19.23;77.76;100911.88;4999609;28;20450;-83
2023/08/05 08:06:59;;;;;;;6.20;4.20;;;;;;;19.22;77.71;100911.06;5001607;28;20533;-83
2023/08/05 08:09:30;;;;;;;8.03;4.30;;;;;;;19.23;77.74;100901.75;4998430;28;20508;-82
2023/08/05 08:11:59;;;;;;;5.07;4.20;;;;;;;19.34;77.65;100900.75;5000396;28;20945;-81
2023/08/05 08:14:28;;;;;;;13.53;5.03;;;;;;;19.61;76.34;100894.44;4994672;28;20441;-83
2023/08/05 08:16:58;;;;;;;6.53;4.27;;;;;;;19.49;75.26;100892.72;4999886;28;20849;-82
2023/08/05 08:19:27;;;;;;;8.73;4.50;;;;;;;19.96;74.49;100903.78;5008198;28;20453;-84
2023/08/05 08:21:56;;;;;;;7.00;4.33;;;;;;;20.28;72.76;100898.22;5015858;28;20425;-85
2023/08/05 08:24:25;;;;;;;4.27;3.47;;;;;;;20.21;72.03;100903.13;5016227;28;20441;-82
2023/08/05 08:26:56;;;;;;;4.57;3.53;;;;;;;20.11;72.21;100902.22;5015250;28;20408;-84
2023/08/05 08:29:25;;;;;;;12.33;5.60;;;;;;;20.09;73.45;100907.19;5013936;28;20461;-83
2023/08/05 08:31:54;;;;;;;6.07;3.50;;;;;;;20.22;72.30;100906.69;5005798;28;20416;-83
2023/08/05 08:34:23;;;;;;;13.50;4.47;;;;;;;20.35;72.22;100907.09;4999645;28;20427;-83
2023/08/05 08:36:55;;;;;;;7.80;4.30;;;;;;;20.61;71.54;100904.47;4999003;28;20768;-83
2023/08/05 08:39:25;;;;;;;5.27;4.50;;;;;;;20.63;70.98;100911.34;4999083;28;20485;-83
2023/08/05 08:41:58;;;;;;;5.17;3.83;;;;;;;20.56;70.77;100909.94;4998134;28;20416;-84
2023/08/05 08:44:39;;;;;;;4.03;3.63;;;;;;;21.00;69.13;100900.22;5006142;28;20450;-83
2023/08/05 08:47:09;;;;;;;9.50;4.20;;;;;;;20.79;68.54;100898.50;4999060;28;20437;-83
2023/08/05 08:49:38;;;;;;;8.00;5.10;;;;;;;21.00;68.18;100902.13;5000476;28;20435;-84
2023/08/05 08:52:12;;;;;;;3.97;3.47;;;;;;;21.28;65.94;100906.34;4995967;28;20954;-84
2023/08/05 08:54:42;;;;;;;11.27;4.50;;;;;;;21.35;65.25;100904.97;4998259;28;20833;-83
2023/08/05 08:57:13;;;;;;;5.47;4.20;;;;;;;21.78;64.92;100903.66;5003750;28;20967;-85
2023/08/05 08:59:42;;;;;;;7.70;4.20;;;;;;;22.31;61.99;100901.38;4997951;28;20459;-83
2023/08/05 09:02:13;;;;;;;6.67;3.90;;;;;;;22.05;61.15;100909.69;4999974;28;20509;-84
2023/08/05 09:04:43;;;;;;;6.60;3.63;;;;;;;22.17;60.99;100900.31;4998519;28;20409;-83
2023/08/05 09:07:12;;;;;;;8.40;4.53;;;;;;;21.97;61.86;100890.16;4997550;28;20407;-84
2023/08/05 09:09:46;;;;;;;7.40;4.20;;;;;;;22.38;60.47;100896.38;5000420;28;20444;-83
2023/08/05 09:12:19;;;;;;;5.47;3.20;;;;;;;22.77;59.69;100889.09;5032802;28;20510;-84
2023/08/05 09:14:54;;;;;;;7.17;4.10;;;;;;;22.44;59.55;100884.25;4994173;28;20512;-83
2023/08/05 09:17:23;;;;;;;5.47;3.80;;;;;;;22.32;59.73;100883.72;4999930;28;20513;-85
2023/08/05 09:19:52;;;;;;;5.50;3.40;;;;;;;22.13;59.65;100894.50;4996681;28;20458;-83
2023/08/05 09:22:21;;;;;;;6.90;4.00;;;;;;;22.09;61.00;100888.75;4996360;28;20442;-84
2023/08/05 09:24:50;;;;;;;5.17;3.70;;;;;;;21.57;62.18;100891.78;4996512;28;20441;-82
2023/08/05 09:27:22;;;;;;;5.20;3.60;;;;;;;21.30;64.05;100891.19;4996100;28;20510;-84
2023/08/05 09:29:54;;;;;;;8.83;3.63;;;;;;;21.67;61.25;100890.97;4997617;28;20457;-83
2023/08/05 09:32:25;;;;;;;6.70;3.60;;;;;;;21.75;61.53;100895.09;5006036;28;20426;-84
2023/08/05 09:35:11;;;;;;;9.13;3.90;;;;;;;22.15;60.38;100885.97;5008880;28;20441;-82
2023/08/05 09:37:40;;;;;;;7.00;3.57;;;;;;;22.52;59.00;100891.94;5029713;28;20416;-83
2023/08/05 09:40:17;;;;;;;9.23;3.80;;;;;;;22.17;59.21;100883.78;5001689;28;20435;-83
2023/08/05 09:42:51;;;;;;;11.40;3.20;;;;;;;22.34;58.57;100884.28;5002031;28;20428;-85
2023/08/05 09:45:21;;;;;;;5.27;3.40;;;;;;;22.54;57.64;100878.69;5005305;28;20430;-84
2023/08/05 09:47:52;;;;;;;4.80;2.97;;;;;;;21.92;59.08;100882.69;5011953;28;20472;-83
2023/08/05 09:50:24;;;;;;;5.20;3.53;;;;;;;22.02;60.18;100877.19;5014982;28;20449;-82
2023/08/05 09:52:57;;;;;;;4.73;3.47;;;;;;;21.99;59.51;100877.75;5028566;28;20457;-82
2023/08/05 09:55:27;;;;;;;5.03;3.23;;;;;;;21.73;59.28;100862.34;5011717;28;20473;-83
2023/08/05 09:57:58;;;;;;;7.83;3.67;;;;;;;21.84;59.60;100855.69;5013616;28;20481;-84
2023/08/05 10:00:28;;;;;;;4.90;3.27;;;;;;;22.51;57.89;100854.44;5009066;28;20467;-83
2023/08/05 10:02:59;;;;;;;8.60;3.70;;;;;;;22.68;56.30;100854.09;5000247;28;20873;-84
2023/08/05 10:05:29;;;;;;;8.73;3.83;;;;;;;22.74;55.65;100853.81;5001915;28;20461;-82
2023/08/05 10:07:59;;;;;;;3.40;2.73;;;;;;;22.31;56.08;100852.59;5008216;28;20414;-84
2023/08/05 10:10:31;;;;;;;4.57;3.07;;;;;;;22.00;56.26;100840.81;5000425;28;20552;-83
2023/08/05 10:13:10;;;;;;;3.60;2.53;;;;;;;22.63;55.28;100843.91;5001703;28;20438;-82
2023/08/05 10:15:42;;;;;;;5.07;3.67;;;;;;;22.92;54.68;100842.13;4999749;28;20473;-83
2023/08/05 10:18:12;;;;;;;5.80;3.60;;;;;;;22.85;54.94;100838.84;4996708;28;20484;-83
2023/08/05 10:20:42;;;;;;;4.13;2.60;;;;;;;23.16;53.30;100831.19;5000931;28;20441;-83
2023/08/05 10:23:15;;;;;;;3.73;3.20;;;;;;;23.10;52.12;100848.06;5001311;28;20429;-84
2023/08/05 10:25:47;;;;;;;6.13;3.03;;;;;;;22.82;52.77;100847.69;5001971;28;20605;-83
2023/08/05 10:28:42;;;;;;;5.60;2.90;;;;;;;22.40;53.13;100853.66;4997225;28;20430;-84
2023/08/05 10:31:27;;;;;;;4.30;3.27;;;;;;;22.69;53.93;100864.84;5004243;28;20440;-82
2023/08/05 10:34:13;;;;;;;5.50;3.10;;;;;;;23.31;51.79;100875.25;5001960;28;20438;-82
2023/08/05 10:36:45;;;;;;;5.87;3.17;;;;;;;23.67;51.16;100858.44;4993907;28;20496;-84
2023/08/05 10:39:42;;;;;;;7.07;3.90;;;;;;;23.40;50.97;100853.38;5001033;28;20949;-85
2023/08/05 10:42:42;;;;;;;3.70;2.73;;;;;;;23.45;51.26;100847.84;4999692;28;20438;-83
2023/08/05 10:45:13;;;;;;;6.07;4.20;;;;;;;23.50;51.85;100842.28;4998610;28;20450;-84
2023/08/05 10:47:48;;;;;;;5.77;3.10;;;;;;;23.66;50.44;100846.56;5002561;28;20426;-83
2023/08/05 10:50:18;;;;;;;5.30;3.33;;;;;;;23.58;51.29;100843.56;5004391;28;20457;-84
2023/08/05 10:52:47;;;;;;;4.83;2.53;;;;;;;23.55;51.92;100833.94;4998354;28;20816;-82
2023/08/05 10:55:16;;;;;;;7.00;3.17;;;;;;;23.29;52.37;100835.22;4998987;28;20473;-82
2023/08/05 10:57:48;;;;;;;5.50;3.43;;;;;;;22.93;53.10;100827.22;4999529;28;20461;-84
2023/08/05 11:00:23;;;;;;;3.70;3.30;;;;;;;22.79;54.43;100819.84;4999537;28;20492;-83
2023/08/05 11:03:31;;;;;;;3.53;2.97;;;;;;;23.21;52.60;100822.03;4998662;28;20464;-83
2023/08/05 11:06:05;;;;;;;6.07;2.63;;;;;;;23.51;52.04;100823.78;4998497;28;20423;-83
2023/08/05 11:08:36;;;;;;;4.00;3.33;;;;;;;23.24;52.21;100813.19;5000871;28;20426;-83
2023/08/05 11:11:07;;;;;;;3.73;2.73;;;;;;;22.83;53.08;100810.72;5030858;28;20552;-83
2023/08/05 11:13:37;;;;;;;4.13;3.10;;;;;;;23.36;51.94;100800.66;5031039;28;20444;-84
2023/08/05 11:16:10;;;;;;;7.60;3.00;;;;;;;22.80;53.20;100799.44;4999700;28;20501;-84
2023/08/05 11:18:41;;;;;;;5.03;3.00;;;;;;;23.15;52.14;100801.09;4998246;28;20692;-83
2023/08/05 11:21:11;;;;;;;6.67;3.47;;;;;;;23.26;51.58;100797.16;4994687;28;20452;-84
2023/08/05 11:23:42;;;;;;;9.17;3.50;;;;;;;23.63;49.93;100802.91;4999302;28;20430;-84
2023/08/05 11:26:11;;;;;;;4.50;2.73;;;;;;;23.64;50.78;100793.53;5010412;28;20429;-84
2023/08/05 11:28:44;;;;;;;7.87;3.47;;;;;;;23.51;51.27;100794.22;5016905;28;20481;-84
2023/08/05 11:31:23;;;;;;;5.40;3.53;;;;;;;23.70;50.67;100791.53;5002382;28;20956;-84
2023/08/05 11:33:55;;;;;;;11.47;3.20;;;;;;;23.91;50.72;100790.22;4998342;28;20438;-85
2023/08/05 11:36:28;;;;;;;6.80;4.40;;;;;;;24.09;50.28;100789.44;4999006;28;20887;-84
2023/08/05 11:38:59;;;;;;;5.20;3.27;;;;;;;24.37;50.56;100793.28;5004495;28;20680;-82
2023/08/05 11:41:30;;;;;;;7.50;3.77;;;;;;;24.45;48.67;100787.06;5006561;28;20441;-82
2023/08/05 11:43:59;;;;;;;5.83;2.83;;;;;;;24.29;49.41;100782.88;5004569;28;20496;-82
2023/08/05 11:46:30;;;;;;;3.27;2.97;;;;;;;24.11;49.00;100789.13;4998342;28;20437;-82
2023/08/05 11:49:19;;;;;;;4.30;3.03;;;;;;;24.37;48.62;100787.75;4997303;28;20458;-82
2023/08/05 11:51:49;;;;;;;4.03;2.90;;;;;;;24.49;49.92;100779.84;5032187;28;20484;-83
2023/08/05 11:54:28;;;;;;;5.93;3.20;;;;;;;24.93;48.10;100781.47;4998586;28;20509;-84
2023/08/05 11:56:58;;;;;;;9.90;3.70;;;;;;;24.77;47.65;100769.78;4996993;28;20470;-84
2023/08/05 11:59:43;;;;;;;3.47;3.17;;;;;;;24.61;48.08;100773.88;5010878;22;20466;31
2023/08/05 12:02:18;;;;;;;4.10;2.87;;;;;;;23.79;49.94;100762.16;4969928;28;20423;-81
2023/08/05 12:04:49;;;;;;;3.70;2.70;;;;;;;23.65;50.49;100766.72;4976451;29;20474;-81
2023/08/05 12:07:19;;;;;;;4.70;2.90;;;;;;;23.92;49.74;100761.44;4975576;29;20471;-80